sensor_id;sensor_type;location;lat;lon;timestamp;temperature;humidity
17697;DHT22;8967;47.984;7.842;2022-09-03T00:00:08;18.00;99.90
17697;DHT22;8967;47.984;7.842;2022-09-03T00:02:39;18.10;99.90
17697;DHT22;8967;47.984;7.842;2022-09-03T00:05:15;18.00;99.90
17697;DHT22;8967;47.984;7.842;2022-09-03T00:07:53;18.00;99.90
17697;DHT22;8967;47.984;7.842;2022-09-03T00:10:26;18.00;99.90
17697;DHT22;8967;47.984;7.842;2022-09-03T00:12:57;18.00;99.90
17697;DHT22;8967;47.984;7.842;2022-09-03T00:15:27;18.00;99.90
17697;DHT22;8967;47.984;7.842;2022-09-03T00:17:59;18.00;99.90
17697;DHT22;8967;47.984;7.842;2022-09-03T00:20:30;18.00;99.90
17697;DHT22;8967;47.984;7.842;2022-09-03T00:23:03;18.00;99.90
17697;DHT22;8967;47.984;7.842;2022-09-03T00:25:35;18.00;99.90
17697;DHT22;8967;47.984;7.842;2022-09-03T00:28:07;18.00;99.90
17697;DHT22;8967;47.984;7.842;2022-09-03T00:30:37;18.00;99.90
17697;DHT22;8967;47.984;7.842;2022-09-03T00:33:09;18.00;99.90
17697;DHT22;8967;47.984;7.842;2022-09-03T00:35:43;18.00;99.90
17697;DHT22;8967;47.984;7.842;2022-09-03T00:38:15;18.00;99.90
17697;DHT22;8967;47.984;7.842;2022-09-03T00:40:56;18.00;99.90
17697;DHT22;8967;47.984;7.842;2022-09-03T00:43:33;18.00;99.90
17697;DHT22;8967;47.984;7.842;2022-09-03T00:46:08;18.00;99.90
17697;DHT22;8967;47.984;7.842;2022-09-03T00:48:49;17.90;99.90
17697;DHT22;8967;47.984;7.842;2022-09-03T00:51:22;18.00;99.90
17697;DHT22;8967;47.984;7.842;2022-09-03T00:54:01;17.90;99.90
17697;DHT22;8967;47.984;7.842;2022-09-03T00:56:39;18.00;99.90
17697;DHT22;8967;47.984;7.842;2022-09-03T00:59:22;17.90;99.90
17697;DHT22;8967;47.984;7.842;2022-09-03T01:02:02;18.00;99.90
17697;DHT22;8967;47.984;7.842;2022-09-03T01:04:41;18.00;99.90
17697;DHT22;8967;47.984;7.842;2022-09-03T01:07:18;18.00;99.90
17697;DHT22;8967;47.984;7.842;2022-09-03T01:09:57;18.00;99.90
17697;DHT22;8967;47.984;7.842;2022-09-03T01:12:34;18.00;99.90
17697;DHT22;8967;47.984;7.842;2022-09-03T01:15:09;18.00;99.90
17697;DHT22;8967;47.984;7.842;2022-09-03T01:17:57;18.00;99.90
17697;DHT22;8967;47.984;7.842;2022-09-03T01:20:51;18.00;99.90
17697;DHT22;8967;47.984;7.842;2022-09-03T01:23:47;18.00;99.90
17697;DHT22;8967;47.984;7.842;2022-09-03T01:26:47;18.00;99.90
17697;DHT22;8967;47.984;7.842;2022-09-03T01:29:24;18.00;99.90
17697;DHT22;8967;47.984;7.842;2022-09-03T01:31:59;18.00;99.90
17697;DHT22;8967;47.984;7.842;2022-09-03T01:34:40;18.00;99.90
17697;DHT22;8967;47.984;7.842;2022-09-03T01:37:15;18.00;99.90
17697;DHT22;8967;47.984;7.842;2022-09-03T01:39:54;18.00;99.90
17697;DHT22;8967;47.984;7.842;2022-09-03T01:42:31;18.00;99.90
17697;DHT22;8967;47.984;7.842;2022-09-03T01:45:33;18.00;99.90
17697;DHT22;8967;47.984;7.842;2022-09-03T01:48:12;18.00;99.90
17697;DHT22;8967;47.984;7.842;2022-09-03T01:50:47;18.00;99.90
17697;DHT22;8967;47.984;7.842;2022-09-03T01:53:26;18.00;99.90
17697;DHT22;8967;47.984;7.842;2022-09-03T01:56:10;18.00;99.90
17697;DHT22;8967;47.984;7.842;2022-09-03T01:58:44;18.00;99.90
17697;DHT22;8967;47.984;7.842;2022-09-03T02:01:22;18.00;99.90
17697;DHT22;8967;47.984;7.842;2022-09-03T02:03:50;18.00;99.90
17697;DHT22;8967;47.984;7.842;2022-09-03T02:06:18;18.00;99.90
17697;DHT22;8967;47.984;7.842;2022-09-03T02:08:46;18.00;99.90
17697;DHT22;8967;47.984;7.842;2022-09-03T02:11:13;18.00;99.90
17697;DHT22;8967;47.984;7.842;2022-09-03T02:13:41;18.10;99.90
17697;DHT22;8967;47.984;7.842;2022-09-03T02:16:11;18.00;99.90
17697;DHT22;8967;47.984;7.842;2022-09-03T02:18:44;18.00;99.90
17697;DHT22;8967;47.984;7.842;2022-09-03T02:21:14;18.00;99.90
17697;DHT22;8967;47.984;7.842;2022-09-03T02:23:42;18.00;99.90
17697;DHT22;8967;47.984;7.842;2022-09-03T02:26:11;18.00;99.90
17697;DHT22;8967;47.984;7.842;2022-09-03T02:28:38;18.00;99.90
17697;DHT22;8967;47.984;7.842;2022-09-03T02:31:05;18.00;99.90
17697;DHT22;8967;47.984;7.842;2022-09-03T02:33:36;18.00;99.90
17697;DHT22;8967;47.984;7.842;2022-09-03T02:36:07;18.00;99.90
17697;DHT22;8967;47.984;7.842;2022-09-03T02:38:35;18.00;99.90
17697;DHT22;8967;47.984;7.842;2022-09-03T02:41:02;18.00;99.90
17697;DHT22;8967;47.984;7.842;2022-09-03T02:43:33;18.00;99.90
17697;DHT22;8967;47.984;7.842;2022-09-03T02:46:05;18.00;99.90
17697;DHT22;8967;47.984;7.842;2022-09-03T02:48:34;18.10;99.90
17697;DHT22;8967;47.984;7.842;2022-09-03T02:51:02;18.10;99.90
17697;DHT22;8967;47.984;7.842;2022-09-03T02:53:30;18.10;99.90
17697;DHT22;8967;47.984;7.842;2022-09-03T02:55:58;18.10;99.90
17697;DHT22;8967;47.984;7.842;2022-09-03T02:58:26;18.20;99.90
17697;DHT22;8967;47.984;7.842;2022-09-03T03:00:53;18.20;99.90
17697;DHT22;8967;47.984;7.842;2022-09-03T03:03:20;18.20;99.90
17697;DHT22;8967;47.984;7.842;2022-09-03T03:05:49;18.20;99.90
17697;DHT22;8967;47.984;7.842;2022-09-03T03:08:18;18.20;99.90
17697;DHT22;8967;47.984;7.842;2022-09-03T03:10:47;18.30;99.90
17697;DHT22;8967;47.984;7.842;2022-09-03T03:13:17;18.30;99.90
17697;DHT22;8967;47.984;7.842;2022-09-03T03:15:44;18.20;99.90
17697;DHT22;8967;47.984;7.842;2022-09-03T03:18:12;18.30;99.90
17697;DHT22;8967;47.984;7.842;2022-09-03T03:20:40;18.30;99.90
17697;DHT22;8967;47.984;7.842;2022-09-03T03:23:07;18.30;99.90
17697;DHT22;8967;47.984;7.842;2022-09-03T03:25:36;18.30;99.90
17697;DHT22;8967;47.984;7.842;2022-09-03T03:28:05;18.30;99.90
17697;DHT22;8967;47.984;7.842;2022-09-03T03:30:33;18.30;99.90
17697;DHT22;8967;47.984;7.842;2022-09-03T03:33:00;18.30;99.90
17697;DHT22;8967;47.984;7.842;2022-09-03T03:35:27;18.30;99.90
17697;DHT22;8967;47.984;7.842;2022-09-03T03:37:56;18.30;99.90
17697;DHT22;8967;47.984;7.842;2022-09-03T03:40:23;18.40;99.90
17697;DHT22;8967;47.984;7.842;2022-09-03T03:42:50;18.30;99.90
17697;DHT22;8967;47.984;7.842;2022-09-03T03:45:19;18.30;99.90
17697;DHT22;8967;47.984;7.842;2022-09-03T03:47:46;18.30;99.90
17697;DHT22;8967;47.984;7.842;2022-09-03T03:50:15;18.30;99.90
17697;DHT22;8967;47.984;7.842;2022-09-03T03:52:44;18.30;99.90
17697;DHT22;8967;47.984;7.842;2022-09-03T03:55:15;18.30;99.90
17697;DHT22;8967;47.984;7.842;2022-09-03T03:57:44;18.30;99.90
17697;DHT22;8967;47.984;7.842;2022-09-03T04:00:12;18.30;99.90
17697;DHT22;8967;47.984;7.842;2022-09-03T04:02:43;18.30;99.90
17697;DHT22;8967;47.984;7.842;2022-09-03T04:05:11;18.30;99.90
17697;DHT22;8967;47.984;7.842;2022-09-03T04:07:38;18.30;99.90
17697;DHT22;8967;47.984;7.842;2022-09-03T04:10:06;18.30;99.90
17697;DHT22;8967;47.984;7.842;2022-09-03T04:12:34;18.30;99.90
17697;DHT22;8967;47.984;7.842;2022-09-03T04:15:04;18.30;99.90
17697;DHT22;8967;47.984;7.842;2022-09-03T04:17:33;18.30;99.90
17697;DHT22;8967;47.984;7.842;2022-09-03T04:20:02;18.30;99.90
17697;DHT22;8967;47.984;7.842;2022-09-03T04:22:29;18.30;99.90
17697;DHT22;8967;47.984;7.842;2022-09-03T04:24:56;18.30;99.90
17697;DHT22;8967;47.984;7.842;2022-09-03T04:27:23;18.30;99.90
17697;DHT22;8967;47.984;7.842;2022-09-03T04:29:50;18.30;99.90
17697;DHT22;8967;47.984;7.842;2022-09-03T04:32:17;18.20;99.90
17697;DHT22;8967;47.984;7.842;2022-09-03T04:35:03;18.20;99.90
17697;DHT22;8967;47.984;7.842;2022-09-03T04:37:31;18.20;99.90
17697;DHT22;8967;47.984;7.842;2022-09-03T04:39:58;18.20;99.90
17697;DHT22;8967;47.984;7.842;2022-09-03T04:42:26;18.20;99.90
17697;DHT22;8967;47.984;7.842;2022-09-03T04:44:53;18.20;99.90
17697;DHT22;8967;47.984;7.842;2022-09-03T04:47:20;18.20;99.90
17697;DHT22;8967;47.984;7.842;2022-09-03T04:49:47;18.20;99.90
17697;DHT22;8967;47.984;7.842;2022-09-03T04:52:15;18.20;99.90
17697;DHT22;8967;47.984;7.842;2022-09-03T04:54:42;18.20;99.90
17697;DHT22;8967;47.984;7.842;2022-09-03T04:57:09;18.20;99.90
17697;DHT22;8967;47.984;7.842;2022-09-03T04:59:38;18.20;99.90
17697;DHT22;8967;47.984;7.842;2022-09-03T05:02:07;18.20;99.90
17697;DHT22;8967;47.984;7.842;2022-09-03T05:04:34;18.20;99.90
17697;DHT22;8967;47.984;7.842;2022-09-03T05:07:04;18.20;99.90
17697;DHT22;8967;47.984;7.842;2022-09-03T05:09:32;18.20;99.90
17697;DHT22;8967;47.984;7.842;2022-09-03T05:11:59;18.20;99.90
17697;DHT22;8967;47.984;7.842;2022-09-03T05:14:26;18.20;99.90
17697;DHT22;8967;47.984;7.842;2022-09-03T05:16:53;18.20;99.90
17697;DHT22;8967;47.984;7.842;2022-09-03T05:19:20;18.20;99.90
17697;DHT22;8967;47.984;7.842;2022-09-03T05:21:47;18.20;99.90
17697;DHT22;8967;47.984;7.842;2022-09-03T05:24:14;18.20;99.90
17697;DHT22;8967;47.984;7.842;2022-09-03T05:26:42;18.20;99.90
17697;DHT22;8967;47.984;7.842;2022-09-03T05:29:09;18.20;99.90
17697;DHT22;8967;47.984;7.842;2022-09-03T05:31:37;18.20;99.90
17697;DHT22;8967;47.984;7.842;2022-09-03T05:34:05;18.20;99.90
17697;DHT22;8967;47.984;7.842;2022-09-03T05:36:34;18.20;99.90
17697;DHT22;8967;47.984;7.842;2022-09-03T05:39:04;18.20;99.90
17697;DHT22;8967;47.984;7.842;2022-09-03T05:41:31;18.20;99.90
17697;DHT22;8967;47.984;7.842;2022-09-03T05:44:00;18.20;99.90
17697;DHT22;8967;47.984;7.842;2022-09-03T05:46:30;18.20;99.90
17697;DHT22;8967;47.984;7.842;2022-09-03T05:48:58;18.20;99.90
17697;DHT22;8967;47.984;7.842;2022-09-03T05:51:26;18.20;99.90
17697;DHT22;8967;47.984;7.842;2022-09-03T05:53:53;18.30;99.90
17697;DHT22;8967;47.984;7.842;2022-09-03T05:56:22;18.30;99.90
17697;DHT22;8967;47.984;7.842;2022-09-03T05:58:50;18.30;99.90
17697;DHT22;8967;47.984;7.842;2022-09-03T06:01:20;18.30;99.90
17697;DHT22;8967;47.984;7.842;2022-09-03T06:03:53;18.30;99.90
17697;DHT22;8967;47.984;7.842;2022-09-03T06:06:21;18.30;99.90
17697;DHT22;8967;47.984;7.842;2022-09-03T06:08:50;18.30;99.90
17697;DHT22;8967;47.984;7.842;2022-09-03T06:11:17;18.30;99.90
17697;DHT22;8967;47.984;7.842;2022-09-03T06:13:44;18.40;99.90
17697;DHT22;8967;47.984;7.842;2022-09-03T06:16:12;18.40;99.90
17697;DHT22;8967;47.984;7.842;2022-09-03T06:18:40;18.40;99.90
17697;DHT22;8967;47.984;7.842;2022-09-03T06:21:07;18.50;99.90
17697;DHT22;8967;47.984;7.842;2022-09-03T06:23:34;18.50;99.90
17697;DHT22;8967;47.984;7.842;2022-09-03T06:26:03;18.60;99.90
17697;DHT22;8967;47.984;7.842;2022-09-03T06:28:31;18.60;99.90
17697;DHT22;8967;47.984;7.842;2022-09-03T06:31:03;18.70;99.90
17697;DHT22;8967;47.984;7.842;2022-09-03T06:33:32;18.80;99.90
17697;DHT22;8967;47.984;7.842;2022-09-03T06:36:03;18.90;99.90
17697;DHT22;8967;47.984;7.842;2022-09-03T06:38:31;19.00;99.90
17697;DHT22;8967;47.984;7.842;2022-09-03T06:41:03;19.10;99.90
17697;DHT22;8967;47.984;7.842;2022-09-03T06:43:34;19.10;99.90
17697;DHT22;8967;47.984;7.842;2022-09-03T06:46:04;19.20;99.90
17697;DHT22;8967;47.984;7.842;2022-09-03T06:48:32;19.30;99.90
17697;DHT22;8967;47.984;7.842;2022-09-03T06:51:02;19.40;99.90
17697;DHT22;8967;47.984;7.842;2022-09-03T06:53:34;19.40;99.90
17697;DHT22;8967;47.984;7.842;2022-09-03T06:56:05;19.50;99.90
17697;DHT22;8967;47.984;7.842;2022-09-03T06:58:34;19.60;99.90
17697;DHT22;8967;47.984;7.842;2022-09-03T07:01:02;19.60;99.90
17697;DHT22;8967;47.984;7.842;2022-09-03T07:03:31;19.60;99.90
17697;DHT22;8967;47.984;7.842;2022-09-03T07:06:04;19.70;99.90
17697;DHT22;8967;47.984;7.842;2022-09-03T07:08:31;19.70;99.90
17697;DHT22;8967;47.984;7.842;2022-09-03T07:10:59;19.80;99.90
17697;DHT22;8967;47.984;7.842;2022-09-03T07:13:28;19.90;99.90
17697;DHT22;8967;47.984;7.842;2022-09-03T07:16:01;20.00;99.90
17697;DHT22;8967;47.984;7.842;2022-09-03T07:18:28;20.00;99.90
17697;DHT22;8967;47.984;7.842;2022-09-03T07:20:59;20.10;99.90
17697;DHT22;8967;47.984;7.842;2022-09-03T07:23:28;20.20;99.90
17697;DHT22;8967;47.984;7.842;2022-09-03T07:25:57;20.20;99.90
17697;DHT22;8967;47.984;7.842;2022-09-03T07:28:24;20.30;99.90
17697;DHT22;8967;47.984;7.842;2022-09-03T07:30:52;20.30;99.90
17697;DHT22;8967;47.984;7.842;2022-09-03T07:33:20;20.30;99.90
17697;DHT22;8967;47.984;7.842;2022-09-03T07:35:49;20.40;99.90
17697;DHT22;8967;47.984;7.842;2022-09-03T07:38:17;20.40;99.90
17697;DHT22;8967;47.984;7.842;2022-09-03T07:40:46;20.50;99.90
17697;DHT22;8967;47.984;7.842;2022-09-03T07:43:12;20.60;99.90
17697;DHT22;8967;47.984;7.842;2022-09-03T07:45:39;20.70;99.90
17697;DHT22;8967;47.984;7.842;2022-09-03T07:48:10;20.80;99.90
17697;DHT22;8967;47.984;7.842;2022-09-03T07:50:37;20.90;99.90
17697;DHT22;8967;47.984;7.842;2022-09-03T07:53:04;21.00;99.90
17697;DHT22;8967;47.984;7.842;2022-09-03T07:55:32;21.00;99.90
17697;DHT22;8967;47.984;7.842;2022-09-03T07:58:01;21.10;99.90
17697;DHT22;8967;47.984;7.842;2022-09-03T08:00:30;21.20;99.90
17697;DHT22;8967;47.984;7.842;2022-09-03T08:02:58;21.20;99.90
17697;DHT22;8967;47.984;7.842;2022-09-03T08:05:31;21.20;99.90
17697;DHT22;8967;47.984;7.842;2022-09-03T08:07:58;21.30;99.90
17697;DHT22;8967;47.984;7.842;2022-09-03T08:10:25;21.40;99.90
17697;DHT22;8967;47.984;7.842;2022-09-03T08:12:55;21.50;99.90
17697;DHT22;8967;47.984;7.842;2022-09-03T08:15:26;21.60;99.90
17697;DHT22;8967;47.984;7.842;2022-09-03T08:17:53;21.60;99.90
17697;DHT22;8967;47.984;7.842;2022-09-03T08:20:20;21.70;99.90
17697;DHT22;8967;47.984;7.842;2022-09-03T08:22:47;21.70;99.90
17697;DHT22;8967;47.984;7.842;2022-09-03T08:25:14;21.70;99.90
17697;DHT22;8967;47.984;7.842;2022-09-03T08:27:41;21.80;99.90
17697;DHT22;8967;47.984;7.842;2022-09-03T08:30:08;21.80;99.90
17697;DHT22;8967;47.984;7.842;2022-09-03T08:32:40;21.80;99.90
17697;DHT22;8967;47.984;7.842;2022-09-03T08:35:07;21.80;99.90
17697;DHT22;8967;47.984;7.842;2022-09-03T08:37:34;21.80;99.90
17697;DHT22;8967;47.984;7.842;2022-09-03T08:40:02;21.80;99.90
17697;DHT22;8967;47.984;7.842;2022-09-03T08:42:43;21.80;99.90
17697;DHT22;8967;47.984;7.842;2022-09-03T08:45:15;21.70;99.90
17697;DHT22;8967;47.984;7.842;2022-09-03T08:47:47;21.70;99.90
17697;DHT22;8967;47.984;7.842;2022-09-03T08:50:23;21.70;99.90
17697;DHT22;8967;47.984;7.842;2022-09-03T08:52:53;21.70;99.90
17697;DHT22;8967;47.984;7.842;2022-09-03T08:55:25;21.70;99.90
17697;DHT22;8967;47.984;7.842;2022-09-03T08:57:58;21.70;99.90
17697;DHT22;8967;47.984;7.842;2022-09-03T09:00:38;21.70;99.90
17697;DHT22;8967;47.984;7.842;2022-09-03T09:03:27;21.70;99.90
17697;DHT22;8967;47.984;7.842;2022-09-03T09:06:03;21.70;99.90
17697;DHT22;8967;47.984;7.842;2022-09-03T09:08:39;21.70;99.90
17697;DHT22;8967;47.984;7.842;2022-09-03T09:11:17;21.60;99.90
17697;DHT22;8967;47.984;7.842;2022-09-03T09:13:57;21.60;99.90
17697;DHT22;8967;47.984;7.842;2022-09-03T09:16:35;21.50;99.90
17697;DHT22;8967;47.984;7.842;2022-09-03T09:19:16;21.50;99.90
17697;DHT22;8967;47.984;7.842;2022-09-03T09:21:51;21.40;99.90
17697;DHT22;8967;47.984;7.842;2022-09-03T09:24:27;21.30;99.90
17697;DHT22;8967;47.984;7.842;2022-09-03T09:27:04;21.30;99.90
17697;DHT22;8967;47.984;7.842;2022-09-03T09:29:34;21.30;99.90
17697;DHT22;8967;47.984;7.842;2022-09-03T09:32:03;21.20;99.90
17697;DHT22;8967;47.984;7.842;2022-09-03T09:34:35;21.10;99.90
17697;DHT22;8967;47.984;7.842;2022-09-03T09:37:07;21.10;99.90
17697;DHT22;8967;47.984;7.842;2022-09-03T09:39:37;21.00;99.90
17697;DHT22;8967;47.984;7.842;2022-09-03T09:42:10;20.90;99.90
17697;DHT22;8967;47.984;7.842;2022-09-03T09:44:40;20.80;99.90
17697;DHT22;8967;47.984;7.842;2022-09-03T09:47:13;20.70;99.90
17697;DHT22;8967;47.984;7.842;2022-09-03T09:49:51;20.50;99.90
17697;DHT22;8967;47.984;7.842;2022-09-03T09:52:19;20.40;99.90
17697;DHT22;8967;47.984;7.842;2022-09-03T09:54:51;20.30;99.90
17697;DHT22;8967;47.984;7.842;2022-09-03T09:57:21;20.20;99.90
17697;DHT22;8967;47.984;7.842;2022-09-03T09:59:48;20.10;99.90
17697;DHT22;8967;47.984;7.842;2022-09-03T10:02:22;20.10;99.90
17697;DHT22;8967;47.984;7.842;2022-09-03T10:04:52;20.10;99.90
17697;DHT22;8967;47.984;7.842;2022-09-03T10:07:24;20.00;99.90
17697;DHT22;8967;47.984;7.842;2022-09-03T10:10:04;20.00;99.90
17697;DHT22;8967;47.984;7.842;2022-09-03T10:12:35;19.90;99.90
17697;DHT22;8967;47.984;7.842;2022-09-03T10:15:21;19.80;99.90
17697;DHT22;8967;47.984;7.842;2022-09-03T10:17:56;19.70;99.90
17697;DHT22;8967;47.984;7.842;2022-09-03T10:20:32;19.60;99.90
17697;DHT22;8967;47.984;7.842;2022-09-03T10:23:08;19.60;99.90
17697;DHT22;8967;47.984;7.842;2022-09-03T10:25:40;19.50;99.90
17697;DHT22;8967;47.984;7.842;2022-09-03T10:28:15;19.50;99.90
17697;DHT22;8967;47.984;7.842;2022-09-03T10:31:06;19.40;99.90
17697;DHT22;8967;47.984;7.842;2022-09-03T10:33:40;19.40;99.90
17697;DHT22;8967;47.984;7.842;2022-09-03T10:36:17;19.40;99.90
17697;DHT22;8967;47.984;7.842;2022-09-03T10:38:51;19.30;99.90
17697;DHT22;8967;47.984;7.842;2022-09-03T10:41:27;19.20;99.90
17697;DHT22;8967;47.984;7.842;2022-09-03T10:44:19;19.20;99.90
17697;DHT22;8967;47.984;7.842;2022-09-03T10:46:57;19.20;99.90
17697;DHT22;8967;47.984;7.842;2022-09-03T10:49:41;19.10;99.90
17697;DHT22;8967;47.984;7.842;2022-09-03T10:52:19;19.10;99.90
17697;DHT22;8967;47.984;7.842;2022-09-03T10:54:58;19.10;99.90
17697;DHT22;8967;47.984;7.842;2022-09-03T10:57:36;19.00;99.90
17697;DHT22;8967;47.984;7.842;2022-09-03T11:00:08;19.00;99.90
17697;DHT22;8967;47.984;7.842;2022-09-03T11:06:00;19.00;99.90
17697;DHT22;8967;47.984;7.842;2022-09-03T11:08:33;19.00;99.90
17697;DHT22;8967;47.984;7.842;2022-09-03T11:11:08;19.10;99.90
17697;DHT22;8967;47.984;7.842;2022-09-03T11:13:40;19.10;99.90
17697;DHT22;8967;47.984;7.842;2022-09-03T11:16:14;19.20;99.90
17697;DHT22;8967;47.984;7.842;2022-09-03T11:18:48;19.30;99.90
17697;DHT22;8967;47.984;7.842;2022-09-03T11:21:20;19.40;99.90
17697;DHT22;8967;47.984;7.842;2022-09-03T11:24:00;19.50;99.90
17697;DHT22;8967;47.984;7.842;2022-09-03T11:26:29;19.60;99.90
17697;DHT22;8967;47.984;7.842;2022-09-03T11:28:59;19.70;99.90
17697;DHT22;8967;47.984;7.842;2022-09-03T11:31:37;19.90;99.90
17697;DHT22;8967;47.984;7.842;2022-09-03T11:34:14;19.90;99.90
17697;DHT22;8967;47.984;7.842;2022-09-03T11:36:41;20.00;99.90
17697;DHT22;8967;47.984;7.842;2022-09-03T11:39:17;20.00;99.90
17697;DHT22;8967;47.984;7.842;2022-09-03T11:41:56;20.10;99.90
17697;DHT22;8967;47.984;7.842;2022-09-03T11:44:34;20.10;99.90
17697;DHT22;8967;47.984;7.842;2022-09-03T11:47:13;20.20;99.90
17697;DHT22;8967;47.984;7.842;2022-09-03T11:49:44;20.20;99.90
17697;DHT22;8967;47.984;7.842;2022-09-03T11:52:24;20.20;99.90
17697;DHT22;8967;47.984;7.842;2022-09-03T11:54:53;20.20;99.90
17697;DHT22;8967;47.984;7.842;2022-09-03T11:57:24;20.20;99.90
17697;DHT22;8967;47.984;7.842;2022-09-03T11:59:53;20.20;99.90
17697;DHT22;8967;47.984;7.842;2022-09-03T12:02:27;20.20;99.90
17697;DHT22;8967;47.984;7.842;2022-09-03T12:05:15;20.20;99.90
17697;DHT22;8967;47.984;7.842;2022-09-03T12:07:57;20.20;99.90
17697;DHT22;8967;47.984;7.842;2022-09-03T12:10:38;20.30;99.90
17697;DHT22;8967;47.984;7.842;2022-09-03T12:13:17;20.30;99.90
17697;DHT22;8967;47.984;7.842;2022-09-03T12:16:14;20.40;99.90
17697;DHT22;8967;47.984;7.842;2022-09-03T12:18:43;20.40;99.90
17697;DHT22;8967;47.984;7.842;2022-09-03T12:21:10;20.40;99.90
17697;DHT22;8967;47.984;7.842;2022-09-03T12:23:40;20.40;99.90
17697;DHT22;8967;47.984;7.842;2022-09-03T12:26:12;20.40;99.90
17697;DHT22;8967;47.984;7.842;2022-09-03T12:28:41;20.40;99.90
17697;DHT22;8967;47.984;7.842;2022-09-03T12:31:09;20.40;99.90
17697;DHT22;8967;47.984;7.842;2022-09-03T12:33:50;20.40;99.90
17697;DHT22;8967;47.984;7.842;2022-09-03T12:36:19;20.40;99.90
17697;DHT22;8967;47.984;7.842;2022-09-03T12:38:46;20.40;99.90
17697;DHT22;8967;47.984;7.842;2022-09-03T12:41:25;20.50;99.90
17697;DHT22;8967;47.984;7.842;2022-09-03T12:43:54;20.50;99.90
17697;DHT22;8967;47.984;7.842;2022-09-03T12:46:23;20.50;99.90
17697;DHT22;8967;47.984;7.842;2022-09-03T12:48:57;20.50;99.90
17697;DHT22;8967;47.984;7.842;2022-09-03T12:51:33;20.50;99.90
17697;DHT22;8967;47.984;7.842;2022-09-03T12:54:01;20.60;99.90
17697;DHT22;8967;47.984;7.842;2022-09-03T12:56:33;20.60;99.90
17697;DHT22;8967;47.984;7.842;2022-09-03T12:59:03;20.60;99.90
17697;DHT22;8967;47.984;7.842;2022-09-03T13:01:33;20.70;99.90
17697;DHT22;8967;47.984;7.842;2022-09-03T13:04:04;20.80;99.90
17697;DHT22;8967;47.984;7.842;2022-09-03T13:06:38;20.80;99.90
17697;DHT22;8967;47.984;7.842;2022-09-03T13:09:09;20.90;99.90
17697;DHT22;8967;47.984;7.842;2022-09-03T13:11:40;21.00;99.90
17697;DHT22;8967;47.984;7.842;2022-09-03T13:14:11;21.00;99.90
17697;DHT22;8967;47.984;7.842;2022-09-03T13:17:08;21.00;99.90
17697;DHT22;8967;47.984;7.842;2022-09-03T13:19:47;21.10;99.90
17697;DHT22;8967;47.984;7.842;2022-09-03T13:22:24;21.20;99.90
17697;DHT22;8967;47.984;7.842;2022-09-03T13:25:10;21.30;99.90
17697;DHT22;8967;47.984;7.842;2022-09-03T13:27:45;21.40;99.90
17697;DHT22;8967;47.984;7.842;2022-09-03T13:30:19;21.50;99.90
17697;DHT22;8967;47.984;7.842;2022-09-03T13:32:56;21.60;99.90
17697;DHT22;8967;47.984;7.842;2022-09-03T13:35:28;21.70;99.90
17697;DHT22;8967;47.984;7.842;2022-09-03T13:38:04;21.70;99.90
17697;DHT22;8967;47.984;7.842;2022-09-03T13:40:36;21.80;99.90
17697;DHT22;8967;47.984;7.842;2022-09-03T13:43:20;21.80;99.90
17697;DHT22;8967;47.984;7.842;2022-09-03T13:45:53;21.80;99.90
17697;DHT22;8967;47.984;7.842;2022-09-03T13:48:27;21.90;99.90
17697;DHT22;8967;47.984;7.842;2022-09-03T13:51:18;21.90;99.90
17697;DHT22;8967;47.984;7.842;2022-09-03T13:53:57;21.80;99.90
17697;DHT22;8967;47.984;7.842;2022-09-03T13:56:34;21.80;99.90
17697;DHT22;8967;47.984;7.842;2022-09-03T13:59:06;21.80;99.90
17697;DHT22;8967;47.984;7.842;2022-09-03T14:01:54;21.80;99.90
17697;DHT22;8967;47.984;7.842;2022-09-03T14:04:28;21.90;99.90
17697;DHT22;8967;47.984;7.842;2022-09-03T14:07:03;22.00;99.90
17697;DHT22;8967;47.984;7.842;2022-09-03T14:09:36;22.00;99.90
17697;DHT22;8967;47.984;7.842;2022-09-03T14:12:13;22.00;99.90
17697;DHT22;8967;47.984;7.842;2022-09-03T14:14:52;22.10;99.90
17697;DHT22;8967;47.984;7.842;2022-09-03T14:17:30;22.00;99.90
17697;DHT22;8967;47.984;7.842;2022-09-03T14:20:02;22.00;99.90
17697;DHT22;8967;47.984;7.842;2022-09-03T14:22:38;22.00;99.90
17697;DHT22;8967;47.984;7.842;2022-09-03T14:25:12;22.10;99.90
17697;DHT22;8967;47.984;7.842;2022-09-03T14:27:41;22.10;99.90
17697;DHT22;8967;47.984;7.842;2022-09-03T14:30:18;22.20;99.90
17697;DHT22;8967;47.984;7.842;2022-09-03T14:32:55;22.20;99.90
17697;DHT22;8967;47.984;7.842;2022-09-03T14:35:48;22.30;99.90
17697;DHT22;8967;47.984;7.842;2022-09-03T14:38:38;22.30;99.90
17697;DHT22;8967;47.984;7.842;2022-09-03T14:41:21;22.30;99.90
17697;DHT22;8967;47.984;7.842;2022-09-03T14:44:31;22.30;99.90
17697;DHT22;8967;47.984;7.842;2022-09-03T14:47:14;22.40;99.90
17697;DHT22;8967;47.984;7.842;2022-09-03T14:50:12;22.40;99.90
17697;DHT22;8967;47.984;7.842;2022-09-03T14:53:04;22.40;99.90
17697;DHT22;8967;47.984;7.842;2022-09-03T14:55:52;22.40;99.90
17697;DHT22;8967;47.984;7.842;2022-09-03T14:58:34;22.40;99.90
17697;DHT22;8967;47.984;7.842;2022-09-03T15:01:10;22.40;99.90
17697;DHT22;8967;47.984;7.842;2022-09-03T15:03:58;22.40;99.90
17697;DHT22;8967;47.984;7.842;2022-09-03T15:06:44;22.40;99.90
17697;DHT22;8967;47.984;7.842;2022-09-03T15:09:27;22.50;99.90
17697;DHT22;8967;47.984;7.842;2022-09-03T15:11:58;22.50;99.90
17697;DHT22;8967;47.984;7.842;2022-09-03T15:14:29;22.50;99.90
17697;DHT22;8967;47.984;7.842;2022-09-03T15:17:15;22.60;99.90
17697;DHT22;8967;47.984;7.842;2022-09-03T15:19:57;22.60;99.90
17697;DHT22;8967;47.984;7.842;2022-09-03T15:22:40;22.60;99.90
17697;DHT22;8967;47.984;7.842;2022-09-03T15:25:18;22.70;99.90
17697;DHT22;8967;47.984;7.842;2022-09-03T15:27:57;22.70;99.90
17697;DHT22;8967;47.984;7.842;2022-09-03T15:30:33;22.70;99.90
17697;DHT22;8967;47.984;7.842;2022-09-03T15:33:09;22.70;99.90
17697;DHT22;8967;47.984;7.842;2022-09-03T15:35:59;22.70;99.90
17697;DHT22;8967;47.984;7.842;2022-09-03T15:38:42;22.70;99.90
17697;DHT22;8967;47.984;7.842;2022-09-03T15:41:19;22.60;99.90
17697;DHT22;8967;47.984;7.842;2022-09-03T15:43:49;22.60;99.90
17697;DHT22;8967;47.984;7.842;2022-09-03T15:46:33;22.60;99.90
17697;DHT22;8967;47.984;7.842;2022-09-03T15:49:05;22.60;99.90
17697;DHT22;8967;47.984;7.842;2022-09-03T15:51:46;22.60;99.90
17697;DHT22;8967;47.984;7.842;2022-09-03T15:54:20;22.60;99.90
17697;DHT22;8967;47.984;7.842;2022-09-03T15:56:54;22.60;99.90
17697;DHT22;8967;47.984;7.842;2022-09-03T15:59:27;22.60;99.90
17697;DHT22;8967;47.984;7.842;2022-09-03T16:02:04;22.60;99.90
17697;DHT22;8967;47.984;7.842;2022-09-03T16:04:51;22.60;99.90
17697;DHT22;8967;47.984;7.842;2022-09-03T16:07:24;22.60;99.90
17697;DHT22;8967;47.984;7.842;2022-09-03T16:09:58;22.60;99.90
17697;DHT22;8967;47.984;7.842;2022-09-03T16:12:33;22.60;99.90
17697;DHT22;8967;47.984;7.842;2022-09-03T16:15:07;22.60;99.90
17697;DHT22;8967;47.984;7.842;2022-09-03T16:17:42;22.50;99.90
17697;DHT22;8967;47.984;7.842;2022-09-03T16:20:17;22.50;99.90
17697;DHT22;8967;47.984;7.842;2022-09-03T16:22:55;22.50;99.90
17697;DHT22;8967;47.984;7.842;2022-09-03T16:25:29;22.50;99.90